Scf Mariner — WDJ4074 — position and weather

sailwx.info

Track history (hours):
 
Tides and Currents Weather Stations Pressure Air Temp Water Temp Dewpoint Dewpoint Depression Visibility Wind Speed Wind Dir Waves Ship Positions

Scf Mariner

Owner: SCF Waxler Marine LLC, St Rose, LA. More information available from US FCC via Universal Licensing System and Coast Guard Vessel Documentation Center.

Last reported at 2017-Dec-09 04:14 UTC. Time now 2017-Dec-18 03:24 UTC.
Position N 32°47' W 091°09'.
Warning: this ship's position is 8 days out of date.

Length 48 m.

Type: Towing. MMSI: 367774150.

Date/timePositionNaut miles runAvg speedWind from/ knotsBaromVisibWave heightAir tempDewpointWater temp
2017-Dec-09 04:14N 32°47' W 091°09'2 4.9
2017-Dec-09 03:51N 32°45' W 091°09'5 1.4
2017-Dec-09 00:30N 32°40' W 091°07'3 4.3
2017-Dec-08 23:54N 32°38' W 091°09'2 4.5
2017-Dec-08 23:30N 32°36' W 091°09'2 4.9
2017-Dec-08 23:00N 32°35' W 091°07'2 4.4
2017-Dec-08 22:30N 32°32' W 091°06'3 5.2
2017-Dec-08 22:00N 32°30' W 091°07'3 5.1
2017-Dec-08 21:30N 32°28' W 091°06'3 5.2
2017-Dec-08 21:00N 32°26' W 091°03'2 5.0
2017-Dec-08 20:30N 32°26' W 091°00'2 4.2
2017-Dec-08 20:00N 32°24' W 090°60'2 4.4
2017-Dec-08 19:30N 32°21' W 090°60'3 5.3
2017-Dec-08 19:00N 32°21' W 090°57'2 4.8
2017-Dec-08 18:31N 32°20' W 090°54'2 4.1
2017-Dec-08 18:00N 32°18' W 090°55'0 0.1
2017-Dec-08 17:30N 32°18' W 090°55'1 1.3
2017-Dec-08 17:00N 32°18' W 090°56'3 5.2
2017-Dec-08 16:30N 32°16' W 090°58'2 4.5
2017-Dec-08 16:00N 32°14' W 090°59'3 5.2
2017-Dec-08 15:30N 32°11' W 090°60'2 4.9
2017-Dec-08 15:00N 32°09' W 091°00'2 4.6
2017-Dec-08 14:30N 32°07' W 091°02'3 5.2
2017-Dec-08 13:59N 32°08' W 091°05'2 3.8
2017-Dec-08 13:30N 32°07' W 091°06'3 5.1
2017-Dec-08 12:50N 32°04' W 091°04'2 4.4
2017-Dec-08 12:30N 32°03' W 091°04'3 5.6
2017-Dec-08 12:00N 32°00' W 091°05'6 3.7
2017-Dec-08 10:31N 31°58' W 091°11'0 5.1
2017-Dec-08 10:29N 31°58' W 091°11'  
2017-Dec-03 01:30N 31°33' W 091°26'31 6.1
2017-Dec-02 20:20N 31°59' W 091°06'2 6.9
2017-Dec-02 20:00N 32°01' W 091°04'4 6.9
2017-Dec-02 19:29N 32°04' W 091°04'3 6.9
2017-Dec-02 19:00N 32°07' W 091°07'1 2.8
2017-Dec-02 18:30N 32°08' W 091°05'4 7.5
2017-Dec-02 18:01N 32°08' W 091°01'3 6.8
2017-Dec-02 17:30N 32°11' W 090°60'0 0.3
2017-Dec-02 17:00N 32°11' W 091°00'0 0.0
2017-Dec-02 16:30N 32°11' W 091°00'0 0.9
2017-Dec-02 16:00N 32°11' W 090°60'4 7.5
2017-Dec-02 15:30N 32°15' W 090°59'4 7.9
2017-Dec-02 15:00N 32°18' W 090°55'1 1.3
2017-Dec-02 14:30N 32°18' W 090°55'0 0.0
2017-Dec-02 14:00N 32°18' W 090°55'0 0.0
2017-Dec-02 13:30N 32°18' W 090°55'0 0.0
2017-Dec-02 13:00N 32°18' W 090°55'0 0.0
2017-Dec-02 12:30N 32°18' W 090°55'0 0.0
2017-Dec-02 12:00N 32°18' W 090°55'0 0.0
2017-Dec-02 11:30N 32°18' W 090°55'0 0.0
2017-Dec-02 11:00N 32°18' W 090°55'0 0.0
2017-Dec-02 10:30N 32°18' W 090°55'0 0.0
2017-Dec-02 10:00N 32°18' W 090°55'0 0.0
2017-Dec-02 09:30N 32°18' W 090°55'1 1.4
2017-Dec-02 09:00N 32°19' W 090°54'3 5.2
2017-Dec-02 08:30N 32°21' W 090°56'3 6.6
2017-Dec-02 08:00N 32°21' W 091°00'3 6.9
2017-Dec-02 07:30N 32°25' W 090°60'3 6.7
2017-Dec-02 07:00N 32°26' W 091°03'3 6.7
2017-Dec-02 06:30N 32°28' W 091°06'3 6.6
2017-Dec-02 06:00N 32°31' W 091°06'3 6.6
2017-Dec-02 05:30N 32°35' W 091°07'3 6.9
2017-Dec-02 05:00N 32°38' W 091°09'8 6.7
2017-Dec-02 03:51N 32°44' W 091°03'2 0.1
2017-Dec-01 08:52N 32°44' W 091°05'0 0.0
2017-Dec-01 06:51N 32°44' W 091°05'3 0.9
2017-Dec-01 03:51N 32°44' W 091°08'  
Track history (hours):
 
Tides and Currents Weather Stations Pressure Air Temp Water Temp Dewpoint Dewpoint Depression Visibility Wind Speed Wind Dir Waves Ship Positions

Scf Mariner

Owner: SCF Waxler Marine LLC, St Rose, LA. More information available from US FCC via Universal Licensing System and Coast Guard Vessel Documentation Center.

Last reported at 2017-Dec-09 04:14 UTC. Time now 2017-Dec-18 03:24 UTC.
Position N 32°47' W 091°09'.
Warning: this ship's position is 8 days out of date.

Length 48 m.

Type: Towing. MMSI: 367774150.

Date/timePositionNaut miles runAvg speedWind from/ knotsBaromVisibWave heightAir tempDewpointWater temp
2017-Dec-09 04:14N 32°47' W 091°09'2 4.9
2017-Dec-09 03:51N 32°45' W 091°09'5 1.4
2017-Dec-09 00:30N 32°40' W 091°07'3 4.3
2017-Dec-08 23:54N 32°38' W 091°09'2 4.5
2017-Dec-08 23:30N 32°36' W 091°09'2 4.9
2017-Dec-08 23:00N 32°35' W 091°07'2 4.4
2017-Dec-08 22:30N 32°32' W 091°06'3 5.2
2017-Dec-08 22:00N 32°30' W 091°07'3 5.1
2017-Dec-08 21:30N 32°28' W 091°06'3 5.2
2017-Dec-08 21:00N 32°26' W 091°03'2 5.0
2017-Dec-08 20:30N 32°26' W 091°00'2 4.2
2017-Dec-08 20:00N 32°24' W 090°60'2 4.4
2017-Dec-08 19:30N 32°21' W 090°60'3 5.3
2017-Dec-08 19:00N 32°21' W 090°57'2 4.8
2017-Dec-08 18:31N 32°20' W 090°54'2 4.1
2017-Dec-08 18:00N 32°18' W 090°55'0 0.1
2017-Dec-08 17:30N 32°18' W 090°55'1 1.3
2017-Dec-08 17:00N 32°18' W 090°56'3 5.2
2017-Dec-08 16:30N 32°16' W 090°58'2 4.5
2017-Dec-08 16:00N 32°14' W 090°59'3 5.2
2017-Dec-08 15:30N 32°11' W 090°60'2 4.9
2017-Dec-08 15:00N 32°09' W 091°00'2 4.6
2017-Dec-08 14:30N 32°07' W 091°02'3 5.2
2017-Dec-08 13:59N 32°08' W 091°05'2 3.8
2017-Dec-08 13:30N 32°07' W 091°06'3 5.1
2017-Dec-08 12:50N 32°04' W 091°04'2 4.4
2017-Dec-08 12:30N 32°03' W 091°04'3 5.6
2017-Dec-08 12:00N 32°00' W 091°05'6 3.7
2017-Dec-08 10:31N 31°58' W 091°11'0 5.1
2017-Dec-08 10:29N 31°58' W 091°11'  
2017-Dec-03 01:30N 31°33' W 091°26'31 6.1
2017-Dec-02 20:20N 31°59' W 091°06'2 6.9
2017-Dec-02 20:00N 32°01' W 091°04'4 6.9
2017-Dec-02 19:29N 32°04' W 091°04'3 6.9
2017-Dec-02 19:00N 32°07' W 091°07'1 2.8
2017-Dec-02 18:30N 32°08' W 091°05'4 7.5
2017-Dec-02 18:01N 32°08' W 091°01'3 6.8
2017-Dec-02 17:30N 32°11' W 090°60'0 0.3
2017-Dec-02 17:00N 32°11' W 091°00'0 0.0
2017-Dec-02 16:30N 32°11' W 091°00'0 0.9
2017-Dec-02 16:00N 32°11' W 090°60'4 7.5
2017-Dec-02 15:30N 32°15' W 090°59'4 7.9
2017-Dec-02 15:00N 32°18' W 090°55'1 1.3
2017-Dec-02 14:30N 32°18' W 090°55'0 0.0
2017-Dec-02 14:00N 32°18' W 090°55'0 0.0
2017-Dec-02 13:30N 32°18' W 090°55'0 0.0
2017-Dec-02 13:00N 32°18' W 090°55'0 0.0
2017-Dec-02 12:30N 32°18' W 090°55'0 0.0
2017-Dec-02 12:00N 32°18' W 090°55'0 0.0
2017-Dec-02 11:30N 32°18' W 090°55'0 0.0
2017-Dec-02 11:00N 32°18' W 090°55'0 0.0
2017-Dec-02 10:30N 32°18' W 090°55'0 0.0
2017-Dec-02 10:00N 32°18' W 090°55'0 0.0
2017-Dec-02 09:30N 32°18' W 090°55'1 1.4
2017-Dec-02 09:00N 32°19' W 090°54'3 5.2
2017-Dec-02 08:30N 32°21' W 090°56'3 6.6
2017-Dec-02 08:00N 32°21' W 091°00'3 6.9
2017-Dec-02 07:30N 32°25' W 090°60'3 6.7
2017-Dec-02 07:00N 32°26' W 091°03'3 6.7
2017-Dec-02 06:30N 32°28' W 091°06'3 6.6
2017-Dec-02 06:00N 32°31' W 091°06'3 6.6
2017-Dec-02 05:30N 32°35' W 091°07'3 6.9
2017-Dec-02 05:00N 32°38' W 091°09'8 6.7
2017-Dec-02 03:51N 32°44' W 091°03'2 0.1
2017-Dec-01 08:52N 32°44' W 091°05'0 0.0
2017-Dec-01 06:51N 32°44' W 091°05'3 0.9
2017-Dec-01 03:51N 32°44' W 091°08'  

Dump ship's entire track history